sensor_id;sensor_type;location;lat;lon;timestamp;temperature;humidity
58447;DHT22;44240;51.840;7.258;2024-01-06T00:02:08;8.60;84.40
58447;DHT22;44240;51.840;7.258;2024-01-06T00:04:35;8.60;84.50
58447;DHT22;44240;51.840;7.258;2024-01-06T00:07:02;8.60;84.50
58447;DHT22;44240;51.840;7.258;2024-01-06T00:09:29;8.60;85.50
58447;DHT22;44240;51.840;7.258;2024-01-06T00:11:56;8.60;84.60
58447;DHT22;44240;51.840;7.258;2024-01-06T00:14:22;8.60;84.60
58447;DHT22;44240;51.840;7.258;2024-01-06T00:16:49;8.60;84.60
58447;DHT22;44240;51.840;7.258;2024-01-06T00:19:16;8.60;84.70
58447;DHT22;44240;51.840;7.258;2024-01-06T00:21:44;8.60;84.80
58447;DHT22;44240;51.840;7.258;2024-01-06T00:24:11;8.60;84.90
58447;DHT22;44240;51.840;7.258;2024-01-06T00:26:38;8.60;85.00
58447;DHT22;44240;51.840;7.258;2024-01-06T00:29:04;8.60;85.20
58447;DHT22;44240;51.840;7.258;2024-01-06T00:31:31;8.50;85.10
58447;DHT22;44240;51.840;7.258;2024-01-06T00:33:58;8.60;85.30
58447;DHT22;44240;51.840;7.258;2024-01-06T00:36:25;8.60;85.20
58447;DHT22;44240;51.840;7.258;2024-01-06T00:38:52;8.60;85.30
58447;DHT22;44240;51.840;7.258;2024-01-06T00:41:19;8.60;85.30
58447;DHT22;44240;51.840;7.258;2024-01-06T00:43:45;8.60;85.30
58447;DHT22;44240;51.840;7.258;2024-01-06T00:46:12;8.60;85.30
58447;DHT22;44240;51.840;7.258;2024-01-06T00:48:39;8.60;85.20
58447;DHT22;44240;51.840;7.258;2024-01-06T00:51:06;8.60;85.10
58447;DHT22;44240;51.840;7.258;2024-01-06T00:53:33;8.60;86.00
58447;DHT22;44240;51.840;7.258;2024-01-06T00:55:59;8.60;84.90
58447;DHT22;44240;51.840;7.258;2024-01-06T00:58:26;8.60;84.70
58447;DHT22;44240;51.840;7.258;2024-01-06T01:00:53;8.60;84.50
58447;DHT22;44240;51.840;7.258;2024-01-06T01:03:20;8.50;84.40
58447;DHT22;44240;51.840;7.258;2024-01-06T01:05:47;8.50;84.40
58447;DHT22;44240;51.840;7.258;2024-01-06T01:08:14;8.50;84.30
58447;DHT22;44240;51.840;7.258;2024-01-06T01:10:41;8.50;84.30
58447;DHT22;44240;51.840;7.258;2024-01-06T01:13:07;8.50;84.20
58447;DHT22;44240;51.840;7.258;2024-01-06T01:15:34;8.40;84.10
58447;DHT22;44240;51.840;7.258;2024-01-06T01:18:01;8.40;84.10
58447;DHT22;44240;51.840;7.258;2024-01-06T01:20:28;8.40;84.00
58447;DHT22;44240;51.840;7.258;2024-01-06T01:22:55;8.40;84.00
58447;DHT22;44240;51.840;7.258;2024-01-06T01:25:22;8.40;84.10
58447;DHT22;44240;51.840;7.258;2024-01-06T01:27:48;8.40;84.10
58447;DHT22;44240;51.840;7.258;2024-01-06T01:30:15;8.40;84.10
58447;DHT22;44240;51.840;7.258;2024-01-06T01:32:43;8.40;84.00
58447;DHT22;44240;51.840;7.258;2024-01-06T01:35:10;8.40;84.00
58447;DHT22;44240;51.840;7.258;2024-01-06T01:37:36;8.40;83.90
58447;DHT22;44240;51.840;7.258;2024-01-06T01:40:04;8.40;83.90
58447;DHT22;44240;51.840;7.258;2024-01-06T01:42:30;8.40;83.90
58447;DHT22;44240;51.840;7.258;2024-01-06T01:44:57;8.40;83.80
58447;DHT22;44240;51.840;7.258;2024-01-06T01:47:24;8.50;83.80
58447;DHT22;44240;51.840;7.258;2024-01-06T01:49:53;8.50;83.80
58447;DHT22;44240;51.840;7.258;2024-01-06T01:52:21;8.40;83.70
58447;DHT22;44240;51.840;7.258;2024-01-06T01:54:49;8.40;83.80
58447;DHT22;44240;51.840;7.258;2024-01-06T01:57:16;8.40;84.00
58447;DHT22;44240;51.840;7.258;2024-01-06T01:59:43;8.40;84.10
58447;DHT22;44240;51.840;7.258;2024-01-06T02:02:11;8.30;84.00
58447;DHT22;44240;51.840;7.258;2024-01-06T02:04:38;8.30;84.00
58447;DHT22;44240;51.840;7.258;2024-01-06T02:07:05;8.40;84.10
58447;DHT22;44240;51.840;7.258;2024-01-06T02:09:32;8.30;83.80
58447;DHT22;44240;51.840;7.258;2024-01-06T02:11:59;8.30;83.90
58447;DHT22;44240;51.840;7.258;2024-01-06T02:14:26;8.30;83.80
58447;DHT22;44240;51.840;7.258;2024-01-06T02:16:53;8.30;83.60
58447;DHT22;44240;51.840;7.258;2024-01-06T02:19:19;8.30;83.60
58447;DHT22;44240;51.840;7.258;2024-01-06T02:21:53;8.30;83.70
58447;DHT22;44240;51.840;7.258;2024-01-06T02:24:20;8.30;83.60
58447;DHT22;44240;51.840;7.258;2024-01-06T02:26:47;8.20;83.50
58447;DHT22;44240;51.840;7.258;2024-01-06T02:29:14;8.20;83.60
58447;DHT22;44240;51.840;7.258;2024-01-06T02:31:41;8.20;83.50
58447;DHT22;44240;51.840;7.258;2024-01-06T02:34:08;8.20;83.40
58447;DHT22;44240;51.840;7.258;2024-01-06T02:36:35;8.20;83.50
58447;DHT22;44240;51.840;7.258;2024-01-06T02:39:02;8.10;83.50
58447;DHT22;44240;51.840;7.258;2024-01-06T02:41:28;8.10;83.60
58447;DHT22;44240;51.840;7.258;2024-01-06T02:43:55;8.10;83.60
58447;DHT22;44240;51.840;7.258;2024-01-06T02:46:23;8.00;83.70
58447;DHT22;44240;51.840;7.258;2024-01-06T02:48:50;8.00;83.70
58447;DHT22;44240;51.840;7.258;2024-01-06T02:51:16;8.00;83.80
58447;DHT22;44240;51.840;7.258;2024-01-06T02:53:43;8.00;83.90
58447;DHT22;44240;51.840;7.258;2024-01-06T02:56:11;8.00;84.00
58447;DHT22;44240;51.840;7.258;2024-01-06T02:58:38;8.00;84.00
58447;DHT22;44240;51.840;7.258;2024-01-06T03:01:05;8.00;84.00
58447;DHT22;44240;51.840;7.258;2024-01-06T03:03:32;7.90;84.10
58447;DHT22;44240;51.840;7.258;2024-01-06T03:05:59;7.90;84.10
58447;DHT22;44240;51.840;7.258;2024-01-06T03:08:26;7.90;84.10
58447;DHT22;44240;51.840;7.258;2024-01-06T03:10:53;7.90;84.10
58447;DHT22;44240;51.840;7.258;2024-01-06T03:13:20;7.90;84.00
58447;DHT22;44240;51.840;7.258;2024-01-06T03:15:47;7.80;83.90
58447;DHT22;44240;51.840;7.258;2024-01-06T03:18:14;7.80;83.80
58447;DHT22;44240;51.840;7.258;2024-01-06T03:20:41;7.80;83.80
58447;DHT22;44240;51.840;7.258;2024-01-06T03:23:08;7.80;83.70
58447;DHT22;44240;51.840;7.258;2024-01-06T03:25:35;7.80;83.60
58447;DHT22;44240;51.840;7.258;2024-01-06T03:28:01;7.80;83.50
58447;DHT22;44240;51.840;7.258;2024-01-06T03:30:28;7.70;83.50
58447;DHT22;44240;51.840;7.258;2024-01-06T03:32:55;7.70;83.40
58447;DHT22;44240;51.840;7.258;2024-01-06T03:35:22;7.70;83.40
58447;DHT22;44240;51.840;7.258;2024-01-06T03:37:50;7.60;83.40
58447;DHT22;44240;51.840;7.258;2024-01-06T03:40:16;7.60;83.40
58447;DHT22;44240;51.840;7.258;2024-01-06T03:42:43;7.60;83.50
58447;DHT22;44240;51.840;7.258;2024-01-06T03:45:10;7.70;83.40
58447;DHT22;44240;51.840;7.258;2024-01-06T03:47:37;7.70;83.40
58447;DHT22;44240;51.840;7.258;2024-01-06T03:50:04;7.60;83.20
58447;DHT22;44240;51.840;7.258;2024-01-06T03:52:31;7.60;83.10
58447;DHT22;44240;51.840;7.258;2024-01-06T03:54:58;7.60;83.10
58447;DHT22;44240;51.840;7.258;2024-01-06T03:57:25;7.60;83.10
58447;DHT22;44240;51.840;7.258;2024-01-06T03:59:51;7.60;83.20
58447;DHT22;44240;51.840;7.258;2024-01-06T04:02:18;7.60;83.20
58447;DHT22;44240;51.840;7.258;2024-01-06T04:04:45;7.60;83.10
58447;DHT22;44240;51.840;7.258;2024-01-06T04:07:12;7.60;83.10
58447;DHT22;44240;51.840;7.258;2024-01-06T04:09:42;7.50;82.70
58447;DHT22;44240;51.840;7.258;2024-01-06T04:12:09;7.50;82.80
58447;DHT22;44240;51.840;7.258;2024-01-06T04:14:36;7.50;82.90
58447;DHT22;44240;51.840;7.258;2024-01-06T04:17:03;7.40;82.90
58447;DHT22;44240;51.840;7.258;2024-01-06T04:19:29;7.40;82.90
58447;DHT22;44240;51.840;7.258;2024-01-06T04:21:57;7.40;83.10
58447;DHT22;44240;51.840;7.258;2024-01-06T04:24:24;7.40;83.10
58447;DHT22;44240;51.840;7.258;2024-01-06T04:26:50;7.40;82.90
58447;DHT22;44240;51.840;7.258;2024-01-06T04:29:17;7.40;82.90
58447;DHT22;44240;51.840;7.258;2024-01-06T04:31:44;7.30;83.00
58447;DHT22;44240;51.840;7.258;2024-01-06T04:34:11;7.30;83.20
58447;DHT22;44240;51.840;7.258;2024-01-06T04:36:38;7.20;83.20
58447;DHT22;44240;51.840;7.258;2024-01-06T04:39:05;7.20;83.30
58447;DHT22;44240;51.840;7.258;2024-01-06T04:41:32;7.20;83.40
58447;DHT22;44240;51.840;7.258;2024-01-06T04:43:58;7.20;83.40
58447;DHT22;44240;51.840;7.258;2024-01-06T04:46:25;7.20;83.30
58447;DHT22;44240;51.840;7.258;2024-01-06T04:48:52;7.20;83.30
58447;DHT22;44240;51.840;7.258;2024-01-06T04:51:19;7.20;83.20
58447;DHT22;44240;51.840;7.258;2024-01-06T04:53:46;7.20;83.20
58447;DHT22;44240;51.840;7.258;2024-01-06T04:56:12;7.20;83.10
58447;DHT22;44240;51.840;7.258;2024-01-06T04:58:39;7.20;83.00
58447;DHT22;44240;51.840;7.258;2024-01-06T05:01:07;7.10;83.10
58447;DHT22;44240;51.840;7.258;2024-01-06T05:03:34;7.20;83.20
58447;DHT22;44240;51.840;7.258;2024-01-06T05:06:02;7.10;83.10
58447;DHT22;44240;51.840;7.258;2024-01-06T05:08:28;7.10;83.00
58447;DHT22;44240;51.840;7.258;2024-01-06T05:10:57;7.10;82.90
58447;DHT22;44240;51.840;7.258;2024-01-06T05:13:24;7.10;83.10
58447;DHT22;44240;51.840;7.258;2024-01-06T05:15:51;7.00;83.10
58447;DHT22;44240;51.840;7.258;2024-01-06T05:18:17;7.00;83.10
58447;DHT22;44240;51.840;7.258;2024-01-06T05:20:45;7.00;83.10
58447;DHT22;44240;51.840;7.258;2024-01-06T05:23:12;7.00;83.20
58447;DHT22;44240;51.840;7.258;2024-01-06T05:25:39;7.00;83.10
58447;DHT22;44240;51.840;7.258;2024-01-06T05:28:05;6.90;83.10
58447;DHT22;44240;51.840;7.258;2024-01-06T05:30:32;7.00;83.20
58447;DHT22;44240;51.840;7.258;2024-01-06T05:33:00;6.90;83.20
58447;DHT22;44240;51.840;7.258;2024-01-06T05:35:27;6.90;83.30
58447;DHT22;44240;51.840;7.258;2024-01-06T05:37:55;6.90;83.40
58447;DHT22;44240;51.840;7.258;2024-01-06T05:40:22;6.90;83.50
58447;DHT22;44240;51.840;7.258;2024-01-06T05:42:48;6.90;83.60
58447;DHT22;44240;51.840;7.258;2024-01-06T05:45:15;6.90;83.60
58447;DHT22;44240;51.840;7.258;2024-01-06T05:47:42;6.90;83.80
58447;DHT22;44240;51.840;7.258;2024-01-06T05:50:09;6.90;83.80
58447;DHT22;44240;51.840;7.258;2024-01-06T05:52:36;6.90;83.80
58447;DHT22;44240;51.840;7.258;2024-01-06T05:55:04;6.80;83.90
58447;DHT22;44240;51.840;7.258;2024-01-06T05:57:31;6.80;83.90
58447;DHT22;44240;51.840;7.258;2024-01-06T05:59:59;6.80;83.90
58447;DHT22;44240;51.840;7.258;2024-01-06T06:02:26;6.80;84.20
58447;DHT22;44240;51.840;7.258;2024-01-06T06:04:52;6.80;84.10
58447;DHT22;44240;51.840;7.258;2024-01-06T06:07:19;6.80;84.10
58447;DHT22;44240;51.840;7.258;2024-01-06T06:09:47;6.70;84.10
58447;DHT22;44240;51.840;7.258;2024-01-06T06:12:14;6.70;84.10
58447;DHT22;44240;51.840;7.258;2024-01-06T06:14:41;6.70;84.10
58447;DHT22;44240;51.840;7.258;2024-01-06T06:17:08;6.70;84.10
58447;DHT22;44240;51.840;7.258;2024-01-06T06:19:35;6.70;84.20
58447;DHT22;44240;51.840;7.258;2024-01-06T06:22:02;6.70;84.10
58447;DHT22;44240;51.840;7.258;2024-01-06T06:24:29;6.60;84.10
58447;DHT22;44240;51.840;7.258;2024-01-06T06:26:55;6.60;84.30
58447;DHT22;44240;51.840;7.258;2024-01-06T06:29:22;6.60;84.30
58447;DHT22;44240;51.840;7.258;2024-01-06T06:31:49;6.60;84.30
58447;DHT22;44240;51.840;7.258;2024-01-06T06:34:16;6.60;84.30
58447;DHT22;44240;51.840;7.258;2024-01-06T06:36:43;6.50;84.20
58447;DHT22;44240;51.840;7.258;2024-01-06T06:39:10;6.50;84.30
58447;DHT22;44240;51.840;7.258;2024-01-06T06:41:37;6.50;84.40
58447;DHT22;44240;51.840;7.258;2024-01-06T06:44:04;6.40;84.50
58447;DHT22;44240;51.840;7.258;2024-01-06T06:46:31;6.40;84.50
58447;DHT22;44240;51.840;7.258;2024-01-06T06:48:58;6.40;84.60
58447;DHT22;44240;51.840;7.258;2024-01-06T06:51:25;6.30;84.70
58447;DHT22;44240;51.840;7.258;2024-01-06T06:53:54;6.40;84.70
58447;DHT22;44240;51.840;7.258;2024-01-06T06:56:20;6.30;84.50
58447;DHT22;44240;51.840;7.258;2024-01-06T06:58:47;6.40;84.40
58447;DHT22;44240;51.840;7.258;2024-01-06T07:01:15;6.30;84.40
58447;DHT22;44240;51.840;7.258;2024-01-06T07:03:42;6.30;84.40
58447;DHT22;44240;51.840;7.258;2024-01-06T07:06:12;6.30;84.30
58447;DHT22;44240;51.840;7.258;2024-01-06T07:08:40;6.30;84.40
58447;DHT22;44240;51.840;7.258;2024-01-06T07:11:09;6.30;84.50
58447;DHT22;44240;51.840;7.258;2024-01-06T07:13:37;6.30;84.50
58447;DHT22;44240;51.840;7.258;2024-01-06T07:16:05;6.20;84.50
58447;DHT22;44240;51.840;7.258;2024-01-06T07:18:44;6.20;84.40
58447;DHT22;44240;51.840;7.258;2024-01-06T07:21:12;6.20;84.40
58447;DHT22;44240;51.840;7.258;2024-01-06T07:23:40;6.20;84.40
58447;DHT22;44240;51.840;7.258;2024-01-06T07:26:07;6.20;84.30
58447;DHT22;44240;51.840;7.258;2024-01-06T07:28:34;6.20;84.40
58447;DHT22;44240;51.840;7.258;2024-01-06T07:31:01;6.20;84.40
58447;DHT22;44240;51.840;7.258;2024-01-06T07:33:28;6.10;84.40
58447;DHT22;44240;51.840;7.258;2024-01-06T07:35:55;6.10;84.30
58447;DHT22;44240;51.840;7.258;2024-01-06T07:38:22;6.10;84.40
58447;DHT22;44240;51.840;7.258;2024-01-06T07:40:49;6.10;84.50
58447;DHT22;44240;51.840;7.258;2024-01-06T07:43:16;6.00;84.50
58447;DHT22;44240;51.840;7.258;2024-01-06T07:45:42;6.00;84.50
58447;DHT22;44240;51.840;7.258;2024-01-06T07:48:09;6.00;84.40
58447;DHT22;44240;51.840;7.258;2024-01-06T07:50:36;6.00;84.40
58447;DHT22;44240;51.840;7.258;2024-01-06T07:53:03;5.90;84.40
58447;DHT22;44240;51.840;7.258;2024-01-06T07:55:30;5.90;84.40
58447;DHT22;44240;51.840;7.258;2024-01-06T07:57:56;5.90;84.60
58447;DHT22;44240;51.840;7.258;2024-01-06T08:00:23;5.90;84.60
58447;DHT22;44240;51.840;7.258;2024-01-06T08:02:51;5.90;84.60
58447;DHT22;44240;51.840;7.258;2024-01-06T08:05:17;5.90;84.60
58447;DHT22;44240;51.840;7.258;2024-01-06T08:07:44;5.90;84.60
58447;DHT22;44240;51.840;7.258;2024-01-06T08:10:11;5.90;84.70
58447;DHT22;44240;51.840;7.258;2024-01-06T08:12:38;5.80;84.60
58447;DHT22;44240;51.840;7.258;2024-01-06T08:15:05;5.80;84.60
58447;DHT22;44240;51.840;7.258;2024-01-06T08:17:34;5.70;84.70
58447;DHT22;44240;51.840;7.258;2024-01-06T08:20:00;5.70;84.90
58447;DHT22;44240;51.840;7.258;2024-01-06T08:22:27;5.70;85.00
58447;DHT22;44240;51.840;7.258;2024-01-06T08:24:54;5.70;85.00
58447;DHT22;44240;51.840;7.258;2024-01-06T08:27:21;5.70;84.90
58447;DHT22;44240;51.840;7.258;2024-01-06T08:29:50;5.70;84.90
58447;DHT22;44240;51.840;7.258;2024-01-06T08:32:17;5.70;85.00
58447;DHT22;44240;51.840;7.258;2024-01-06T08:34:44;5.70;84.90
58447;DHT22;44240;51.840;7.258;2024-01-06T08:37:10;5.70;84.80
58447;DHT22;44240;51.840;7.258;2024-01-06T08:39:37;5.80;85.00
58447;DHT22;44240;51.840;7.258;2024-01-06T08:42:04;5.70;84.90
58447;DHT22;44240;51.840;7.258;2024-01-06T08:44:31;5.70;84.80
58447;DHT22;44240;51.840;7.258;2024-01-06T08:46:58;5.80;85.80
58447;DHT22;44240;51.840;7.258;2024-01-06T08:49:25;5.70;84.70
58447;DHT22;44240;51.840;7.258;2024-01-06T08:51:52;5.80;84.90
58447;DHT22;44240;51.840;7.258;2024-01-06T08:54:19;5.80;84.90
58447;DHT22;44240;51.840;7.258;2024-01-06T08:56:45;5.70;84.80
58447;DHT22;44240;51.840;7.258;2024-01-06T08:59:12;5.70;84.80
58447;DHT22;44240;51.840;7.258;2024-01-06T09:01:39;5.70;84.90
58447;DHT22;44240;51.840;7.258;2024-01-06T09:04:06;5.70;84.90
58447;DHT22;44240;51.840;7.258;2024-01-06T09:06:34;5.70;86.00
58447;DHT22;44240;51.840;7.258;2024-01-06T09:09:00;5.70;85.10
58447;DHT22;44240;51.840;7.258;2024-01-06T09:11:27;5.70;85.00
58447;DHT22;44240;51.840;7.258;2024-01-06T09:13:54;5.70;85.10
58447;DHT22;44240;51.840;7.258;2024-01-06T09:16:21;5.70;85.10
58447;DHT22;44240;51.840;7.258;2024-01-06T09:18:48;5.70;84.90
58447;DHT22;44240;51.840;7.258;2024-01-06T09:21:16;5.80;84.90
58447;DHT22;44240;51.840;7.258;2024-01-06T09:23:44;5.80;84.90
58447;DHT22;44240;51.840;7.258;2024-01-06T09:26:11;5.80;84.80
58447;DHT22;44240;51.840;7.258;2024-01-06T09:28:38;5.80;84.90
58447;DHT22;44240;51.840;7.258;2024-01-06T09:31:06;5.80;84.90
58447;DHT22;44240;51.840;7.258;2024-01-06T09:33:33;5.80;84.90
58447;DHT22;44240;51.840;7.258;2024-01-06T09:36:01;5.80;84.80
58447;DHT22;44240;51.840;7.258;2024-01-06T09:38:28;5.90;84.80
58447;DHT22;44240;51.840;7.258;2024-01-06T09:40:55;5.90;84.60
58447;DHT22;44240;51.840;7.258;2024-01-06T09:43:22;5.90;84.60
58447;DHT22;44240;51.840;7.258;2024-01-06T09:45:56;5.90;84.50
58447;DHT22;44240;51.840;7.258;2024-01-06T09:48:28;5.90;84.50
58447;DHT22;44240;51.840;7.258;2024-01-06T09:50:56;5.90;84.30
58447;DHT22;44240;51.840;7.258;2024-01-06T09:53:33;5.90;84.30
58447;DHT22;44240;51.840;7.258;2024-01-06T09:56:03;5.90;84.30
58447;DHT22;44240;51.840;7.258;2024-01-06T09:58:31;5.90;84.50
58447;DHT22;44240;51.840;7.258;2024-01-06T10:01:01;5.90;84.30
58447;DHT22;44240;51.840;7.258;2024-01-06T10:03:29;5.90;84.30
58447;DHT22;44240;51.840;7.258;2024-01-06T10:05:56;5.90;84.30
58447;DHT22;44240;51.840;7.258;2024-01-06T10:08:27;5.90;84.40
58447;DHT22;44240;51.840;7.258;2024-01-06T10:10:54;5.90;84.40
58447;DHT22;44240;51.840;7.258;2024-01-06T10:13:20;5.90;84.30
58447;DHT22;44240;51.840;7.258;2024-01-06T10:15:47;5.90;84.30
58447;DHT22;44240;51.840;7.258;2024-01-06T10:18:14;5.90;84.30
58447;DHT22;44240;51.840;7.258;2024-01-06T10:20:41;5.90;84.30
58447;DHT22;44240;51.840;7.258;2024-01-06T10:23:08;5.90;84.00
58447;DHT22;44240;51.840;7.258;2024-01-06T10:25:35;5.90;83.80
58447;DHT22;44240;51.840;7.258;2024-01-06T10:28:02;5.90;83.70
58447;DHT22;44240;51.840;7.258;2024-01-06T10:30:29;5.90;83.80
58447;DHT22;44240;51.840;7.258;2024-01-06T10:32:56;5.80;83.70
58447;DHT22;44240;51.840;7.258;2024-01-06T10:35:25;5.80;83.60
58447;DHT22;44240;51.840;7.258;2024-01-06T10:37:52;5.80;83.60
58447;DHT22;44240;51.840;7.258;2024-01-06T10:40:20;5.70;83.50
58447;DHT22;44240;51.840;7.258;2024-01-06T10:42:47;5.70;83.50
58447;DHT22;44240;51.840;7.258;2024-01-06T10:45:14;5.70;83.60
58447;DHT22;44240;51.840;7.258;2024-01-06T10:47:42;5.70;83.60
58447;DHT22;44240;51.840;7.258;2024-01-06T10:50:10;5.60;83.70
58447;DHT22;44240;51.840;7.258;2024-01-06T10:52:38;5.60;83.80
58447;DHT22;44240;51.840;7.258;2024-01-06T10:55:05;5.60;83.90
58447;DHT22;44240;51.840;7.258;2024-01-06T10:57:33;5.60;83.80
58447;DHT22;44240;51.840;7.258;2024-01-06T11:00:01;5.60;83.70
58447;DHT22;44240;51.840;7.258;2024-01-06T11:02:29;5.60;83.80
58447;DHT22;44240;51.840;7.258;2024-01-06T11:04:57;5.60;83.70
58447;DHT22;44240;51.840;7.258;2024-01-06T11:07:25;5.60;83.50
58447;DHT22;44240;51.840;7.258;2024-01-06T11:09:55;5.60;83.50
58447;DHT22;44240;51.840;7.258;2024-01-06T11:12:23;5.60;83.70
58447;DHT22;44240;51.840;7.258;2024-01-06T11:14:52;5.50;83.80
58447;DHT22;44240;51.840;7.258;2024-01-06T11:17:52;5.50;83.70
58447;DHT22;44240;51.840;7.258;2024-01-06T11:20:25;5.50;83.50
58447;DHT22;44240;51.840;7.258;2024-01-06T11:22:53;5.50;83.40
58447;DHT22;44240;51.840;7.258;2024-01-06T11:25:21;5.40;83.50
58447;DHT22;44240;51.840;7.258;2024-01-06T11:27:49;5.40;83.60
58447;DHT22;44240;51.840;7.258;2024-01-06T11:30:25;5.40;83.80
58447;DHT22;44240;51.840;7.258;2024-01-06T11:32:53;5.40;83.80
58447;DHT22;44240;51.840;7.258;2024-01-06T11:35:21;5.40;83.90
58447;DHT22;44240;51.840;7.258;2024-01-06T11:45:33;5.30;83.60
58447;DHT22;44240;51.840;7.258;2024-01-06T11:48:02;5.30;83.50
58447;DHT22;44240;51.840;7.258;2024-01-06T11:50:33;5.30;83.20
58447;DHT22;44240;51.840;7.258;2024-01-06T11:53:01;5.30;83.30
58447;DHT22;44240;51.840;7.258;2024-01-06T11:55:29;5.30;83.20
58447;DHT22;44240;51.840;7.258;2024-01-06T11:57:58;5.30;83.10
58447;DHT22;44240;51.840;7.258;2024-01-06T12:00:29;5.30;83.30
58447;DHT22;44240;51.840;7.258;2024-01-06T12:02:59;5.30;83.20
58447;DHT22;44240;51.840;7.258;2024-01-06T12:05:28;5.30;83.20
58447;DHT22;44240;51.840;7.258;2024-01-06T12:07:55;5.30;83.20
58447;DHT22;44240;51.840;7.258;2024-01-06T12:10:23;5.30;83.20
58447;DHT22;44240;51.840;7.258;2024-01-06T12:13:06;5.30;83.10
58447;DHT22;44240;51.840;7.258;2024-01-06T12:15:36;5.30;83.10
58447;DHT22;44240;51.840;7.258;2024-01-06T12:18:07;5.30;83.20
58447;DHT22;44240;51.840;7.258;2024-01-06T12:20:34;5.30;83.30
58447;DHT22;44240;51.840;7.258;2024-01-06T12:23:01;5.30;83.30
58447;DHT22;44240;51.840;7.258;2024-01-06T12:25:30;5.30;83.30
58447;DHT22;44240;51.840;7.258;2024-01-06T12:28:02;5.30;83.30
58447;DHT22;44240;51.840;7.258;2024-01-06T12:30:29;5.30;83.30
58447;DHT22;44240;51.840;7.258;2024-01-06T12:32:58;5.20;83.20
58447;DHT22;44240;51.840;7.258;2024-01-06T12:35:25;5.20;83.30
58447;DHT22;44240;51.840;7.258;2024-01-06T12:37:52;5.20;83.50
58447;DHT22;44240;51.840;7.258;2024-01-06T12:40:19;5.20;83.60
58447;DHT22;44240;51.840;7.258;2024-01-06T12:42:49;5.20;83.60
58447;DHT22;44240;51.840;7.258;2024-01-06T12:45:16;5.20;83.70
58447;DHT22;44240;51.840;7.258;2024-01-06T12:47:44;5.20;83.60
58447;DHT22;44240;51.840;7.258;2024-01-06T12:50:11;5.20;83.60
58447;DHT22;44240;51.840;7.258;2024-01-06T12:52:38;5.20;83.50
58447;DHT22;44240;51.840;7.258;2024-01-06T12:55:07;5.20;83.50
58447;DHT22;44240;51.840;7.258;2024-01-06T12:57:35;5.20;83.50
58447;DHT22;44240;51.840;7.258;2024-01-06T13:00:02;5.20;83.60
58447;DHT22;44240;51.840;7.258;2024-01-06T13:02:30;5.20;83.60
58447;DHT22;44240;51.840;7.258;2024-01-06T13:04:56;5.20;83.70
58447;DHT22;44240;51.840;7.258;2024-01-06T13:07:24;5.20;83.70
58447;DHT22;44240;51.840;7.258;2024-01-06T13:09:51;5.20;83.60
58447;DHT22;44240;51.840;7.258;2024-01-06T13:12:18;5.30;83.40
58447;DHT22;44240;51.840;7.258;2024-01-06T13:14:45;5.30;83.30
58447;DHT22;44240;51.840;7.258;2024-01-06T13:17:14;5.20;83.20
58447;DHT22;44240;51.840;7.258;2024-01-06T13:19:41;5.20;83.30
58447;DHT22;44240;51.840;7.258;2024-01-06T13:22:08;5.20;83.40
58447;DHT22;44240;51.840;7.258;2024-01-06T13:24:35;5.20;83.50
58447;DHT22;44240;51.840;7.258;2024-01-06T13:27:02;5.10;83.60
58447;DHT22;44240;51.840;7.258;2024-01-06T13:29:29;5.20;83.70
58447;DHT22;44240;51.840;7.258;2024-01-06T13:31:56;5.20;83.70
58447;DHT22;44240;51.840;7.258;2024-01-06T13:34:24;5.20;83.80
58447;DHT22;44240;51.840;7.258;2024-01-06T13:36:51;5.20;83.80
58447;DHT22;44240;51.840;7.258;2024-01-06T13:39:22;5.20;83.80
58447;DHT22;44240;51.840;7.258;2024-01-06T13:41:49;5.30;83.70
58447;DHT22;44240;51.840;7.258;2024-01-06T13:44:16;5.30;84.60
58447;DHT22;44240;51.840;7.258;2024-01-06T13:46:43;5.30;83.50
58447;DHT22;44240;51.840;7.258;2024-01-06T13:49:12;5.30;83.40
58447;DHT22;44240;51.840;7.258;2024-01-06T13:51:40;5.30;83.40
58447;DHT22;44240;51.840;7.258;2024-01-06T13:54:07;5.30;83.60
58447;DHT22;44240;51.840;7.258;2024-01-06T13:56:34;5.30;83.50
58447;DHT22;44240;51.840;7.258;2024-01-06T13:59:01;5.40;83.30
58447;DHT22;44240;51.840;7.258;2024-01-06T14:01:29;5.40;83.20
58447;DHT22;44240;51.840;7.258;2024-01-06T14:03:56;5.30;83.10
58447;DHT22;44240;51.840;7.258;2024-01-06T14:06:27;5.30;83.20
58447;DHT22;44240;51.840;7.258;2024-01-06T14:08:57;5.30;83.30
58447;DHT22;44240;51.840;7.258;2024-01-06T14:11:25;5.30;83.20
58447;DHT22;44240;51.840;7.258;2024-01-06T14:13:58;5.30;83.20
58447;DHT22;44240;51.840;7.258;2024-01-06T14:16:26;5.30;83.30
58447;DHT22;44240;51.840;7.258;2024-01-06T14:18:53;5.30;83.30
58447;DHT22;44240;51.840;7.258;2024-01-06T14:21:20;5.30;83.40
58447;DHT22;44240;51.840;7.258;2024-01-06T14:23:47;5.30;83.30
58447;DHT22;44240;51.840;7.258;2024-01-06T14:26:19;5.30;83.30
58447;DHT22;44240;51.840;7.258;2024-01-06T14:28:50;5.30;83.30
58447;DHT22;44240;51.840;7.258;2024-01-06T14:31:17;5.40;83.40
58447;DHT22;44240;51.840;7.258;2024-01-06T14:33:44;5.30;83.30
58447;DHT22;44240;51.840;7.258;2024-01-06T14:36:12;5.40;83.40
58447;DHT22;44240;51.840;7.258;2024-01-06T14:38:39;5.30;83.40
58447;DHT22;44240;51.840;7.258;2024-01-06T14:41:05;5.30;83.40
58447;DHT22;44240;51.840;7.258;2024-01-06T14:43:32;5.30;83.40
58447;DHT22;44240;51.840;7.258;2024-01-06T14:45:59;5.30;83.40
58447;DHT22;44240;51.840;7.258;2024-01-06T14:48:26;5.40;83.60
58447;DHT22;44240;51.840;7.258;2024-01-06T14:50:53;5.30;83.40
58447;DHT22;44240;51.840;7.258;2024-01-06T14:53:20;5.40;84.50
58447;DHT22;44240;51.840;7.258;2024-01-06T14:55:47;5.30;83.40
58447;DHT22;44240;51.840;7.258;2024-01-06T14:58:14;5.40;83.60
58447;DHT22;44240;51.840;7.258;2024-01-06T15:00:40;5.30;83.50
58447;DHT22;44240;51.840;7.258;2024-01-06T15:03:07;5.30;83.50
58447;DHT22;44240;51.840;7.258;2024-01-06T15:05:34;5.30;83.50
58447;DHT22;44240;51.840;7.258;2024-01-06T15:08:01;5.30;83.60
58447;DHT22;44240;51.840;7.258;2024-01-06T15:10:28;5.30;83.70
58447;DHT22;44240;51.840;7.258;2024-01-06T15:12:54;5.20;83.70
58447;DHT22;44240;51.840;7.258;2024-01-06T15:15:21;5.30;83.90
58447;DHT22;44240;51.840;7.258;2024-01-06T15:17:48;5.30;83.80
58447;DHT22;44240;51.840;7.258;2024-01-06T15:20:15;5.30;83.80
58447;DHT22;44240;51.840;7.258;2024-01-06T15:22:42;5.30;83.70
58447;DHT22;44240;51.840;7.258;2024-01-06T15:25:09;5.20;83.60
58447;DHT22;44240;51.840;7.258;2024-01-06T15:27:37;5.30;83.70
58447;DHT22;44240;51.840;7.258;2024-01-06T15:30:04;5.20;83.60
58447;DHT22;44240;51.840;7.258;2024-01-06T15:32:35;5.20;83.70
58447;DHT22;44240;51.840;7.258;2024-01-06T15:35:03;5.20;83.90
58447;DHT22;44240;51.840;7.258;2024-01-06T15:37:30;5.20;84.00
58447;DHT22;44240;51.840;7.258;2024-01-06T15:39:58;5.20;84.00
58447;DHT22;44240;51.840;7.258;2024-01-06T15:42:25;5.20;83.90
58447;DHT22;44240;51.840;7.258;2024-01-06T15:44:52;5.20;83.80
58447;DHT22;44240;51.840;7.258;2024-01-06T15:47:19;5.20;83.90
58447;DHT22;44240;51.840;7.258;2024-01-06T15:49:46;5.20;84.00
58447;DHT22;44240;51.840;7.258;2024-01-06T15:52:13;5.20;83.90
58447;DHT22;44240;51.840;7.258;2024-01-06T15:54:40;5.20;83.80